createdAt,value
2019-03-28T00:00:12.633Z,96998.03
2019-03-28T00:01:16.136Z,96995.42
2019-03-28T00:02:20.046Z,96994.56
2019-03-28T00:03:23.493Z,96997.78
2019-03-28T00:04:26.990Z,96999.58
2019-03-28T00:05:30.421Z,96992.59
2019-03-28T00:06:33.850Z,96993.22
2019-03-28T00:07:37.328Z,96993.22
2019-03-28T00:08:41.117Z,96998.84
2019-03-28T00:09:45.141Z,96992.56
2019-03-28T00:10:48.623Z,96996.19
2019-03-28T00:11:52.068Z,96993.34
2019-03-28T00:12:55.504Z,96992.88
2019-03-28T00:13:58.950Z,96996.31
2019-03-28T00:15:02.531Z,96987.41
2019-03-28T00:16:06.091Z,96991.86
2019-03-28T00:17:09.570Z,96989.86
2019-03-28T00:18:12.980Z,96993.87
2019-03-28T00:19:16.407Z,96997.49
2019-03-28T00:20:19.984Z,96988.43
2019-03-28T00:21:23.460Z,96994.97
2019-03-28T00:22:34.221Z,96992.67
2019-03-28T00:23:42.131Z,96986.97
2019-03-28T00:24:47.289Z,96990.27
2019-03-28T00:25:50.809Z,96987.45
2019-03-28T00:26:54.316Z,96988.59
2019-03-28T00:27:57.769Z,96984.02
2019-03-28T00:29:01.268Z,96985.20
2019-03-28T00:30:06.522Z,96982.14
2019-03-28T00:31:09.953Z,96981.23
2019-03-28T00:32:13.478Z,96983.91
2019-03-28T00:33:16.972Z,96983.16
2019-03-28T00:34:20.406Z,96983.37
2019-03-28T00:35:23.849Z,96982.39
2019-03-28T00:36:27.357Z,96982.84
2019-03-28T00:37:30.814Z,96985.77
2019-03-28T00:38:34.245Z,96977.56
2019-03-28T00:39:37.673Z,96979.80
2019-03-28T00:40:41.195Z,96981.97
2019-03-28T00:41:45.120Z,96980.34
2019-03-28T00:42:48.672Z,96984.09
2019-03-28T00:43:52.113Z,96982.22
2019-03-28T00:44:55.547Z,96982.39
2019-03-28T00:45:58.978Z,96983.91
2019-03-28T00:47:02.417Z,96982.84
2019-03-28T00:48:05.883Z,96975.20
2019-03-28T00:49:09.311Z,96979.61
2019-03-28T00:50:13.183Z,96978.91
2019-03-28T00:51:16.684Z,96980.09
2019-03-28T00:52:20.111Z,96985.61
2019-03-28T00:53:23.572Z,96979.32
2019-03-28T00:54:27.009Z,96990.38
2019-03-28T00:55:30.454Z,96977.11
2019-03-28T00:56:45.221Z,96983.85
2019-03-28T00:57:39.080Z,96983.85
2019-03-28T00:58:42.585Z,96988.63
2019-03-28T00:59:46.039Z,96989.08
2019-03-28T01:00:49.547Z,96987.00
2019-03-28T01:01:52.972Z,96985.41
2019-03-28T01:02:56.430Z,96987.77
2019-03-28T01:03:59.937Z,96984.47
2019-03-28T01:05:04.628Z,96988.63
2019-03-28T01:06:08.127Z,96990.63
2019-03-28T01:07:11.562Z,96983.23
2019-03-28T01:08:15.021Z,96987.45
2019-03-28T01:09:18.476Z,96985.77
2019-03-28T01:10:22.228Z,96985.45
2019-03-28T01:11:25.795Z,96988.06
2019-03-28T01:12:29.290Z,96983.53
2019-03-28T01:13:32.738Z,96990.27
2019-03-28T01:14:36.166Z,96983.73
2019-03-28T01:15:39.605Z,96980.51
2019-03-28T01:16:43.035Z,96991.25
2019-03-28T01:17:46.536Z,96979.41
2019-03-28T01:18:50.057Z,96988.34
2019-03-28T01:19:53.489Z,96982.43
2019-03-28T01:20:56.917Z,96981.73
2019-03-28T01:22:00.423Z,96982.14
2019-03-28T01:23:03.856Z,96984.30
2019-03-28T01:24:07.310Z,96987.77
2019-03-28T01:25:10.878Z,96977.77
2019-03-28T01:26:14.385Z,96985.53
2019-03-28T01:27:17.887Z,96980.84
2019-03-28T01:28:21.323Z,96984.14
2019-03-28T01:29:24.800Z,96980.22
2019-03-28T01:30:28.227Z,96980.30
2019-03-28T01:31:31.662Z,96979.32
2019-03-28T01:32:35.162Z,96981.16
2019-03-28T01:33:38.611Z,96978.22
2019-03-28T01:34:42.132Z,96986.22
2019-03-28T01:35:45.560Z,96984.35
2019-03-28T01:36:48.999Z,96979.37
2019-03-28T01:37:52.425Z,96983.82
2019-03-28T01:38:55.856Z,96982.22
2019-03-28T01:39:59.308Z,96978.52
2019-03-28T01:41:02.757Z,96977.98
2019-03-28T01:42:06.345Z,96969.53
2019-03-28T01:43:09.701Z,96973.86
2019-03-28T01:44:13.203Z,96977.16
2019-03-28T01:45:16.664Z,96971.28
2019-03-28T01:46:20.124Z,96975.37
2019-03-28T01:47:23.625Z,96972.75
2019-03-28T01:48:27.057Z,96975.77
2019-03-28T01:49:30.489Z,96968.22
2019-03-28T01:50:33.941Z,96962.55
2019-03-28T01:51:37.440Z,96949.97
2019-03-28T01:52:40.874Z,96967.08
2019-03-28T01:53:44.322Z,96965.58
2019-03-28T01:54:47.825Z,96964.50
2019-03-28T01:55:51.274Z,96971.73
2019-03-28T01:56:54.709Z,96963.97
2019-03-28T01:57:58.147Z,96957.77
2019-03-28T01:59:01.660Z,96967.20
2019-03-28T02:00:07.735Z,96964.50
2019-03-28T02:01:11.323Z,96964.59
2019-03-28T02:02:14.860Z,96965.81
2019-03-28T02:03:18.314Z,96968.19
2019-03-28T02:04:21.756Z,96968.06
2019-03-28T02:05:25.185Z,96970.46
2019-03-28T02:06:28.650Z,96969.61
2019-03-28T02:07:32.085Z,96971.12
2019-03-28T02:08:35.546Z,96968.51
2019-03-28T02:09:39.044Z,96970.59
2019-03-28T02:10:42.624Z,96970.91
2019-03-28T02:11:46.080Z,96968.47
2019-03-28T02:12:49.511Z,96973.64
2019-03-28T02:13:53.079Z,96973.32
2019-03-28T02:14:56.503Z,96965.24
2019-03-28T02:15:59.947Z,96973.41
2019-03-28T02:17:03.399Z,96976.02
2019-03-28T02:18:06.967Z,96969.94
2019-03-28T02:19:10.394Z,96976.47
2019-03-28T02:20:13.960Z,96970.17
2019-03-28T02:21:17.460Z,96972.14
2019-03-28T02:22:20.911Z,96971.08
2019-03-28T02:23:24.346Z,96965.85
2019-03-28T02:24:27.784Z,96972.84
2019-03-28T02:25:31.213Z,96967.37
2019-03-28T02:26:34.654Z,96969.08
2019-03-28T02:27:38.098Z,96966.79
2019-03-28T02:28:41.543Z,96971.64
2019-03-28T02:29:45.051Z,96974.21
2019-03-28T02:30:48.497Z,96968.74
2019-03-28T02:31:51.917Z,96968.13
2019-03-28T02:32:55.382Z,96968.58
2019-03-28T02:33:58.855Z,96972.42
2019-03-28T02:35:02.337Z,96967.33
2019-03-28T02:36:05.759Z,96973.00
2019-03-28T02:37:09.330Z,96971.77
2019-03-28T02:38:12.909Z,96968.34
2019-03-28T02:39:16.456Z,96977.08
2019-03-28T02:40:19.956Z,96971.53
2019-03-28T02:41:23.380Z,96966.70
2019-03-28T02:42:27.760Z,96966.42
2019-03-28T02:43:31.546Z,96964.12
2019-03-28T02:44:35.006Z,96965.06
2019-03-28T02:45:38.594Z,96965.36
2019-03-28T02:46:42.030Z,96968.45
2019-03-28T02:47:45.464Z,96969.03
2019-03-28T02:48:48.934Z,96964.80
2019-03-28T02:49:52.368Z,96963.11
2019-03-28T02:50:55.878Z,96968.29
2019-03-28T02:51:59.321Z,96966.91
2019-03-28T02:53:02.755Z,96968.13
2019-03-28T02:54:06.278Z,96970.09
2019-03-28T02:55:09.908Z,96972.50
2019-03-28T02:56:13.420Z,96972.38
2019-03-28T02:57:16.846Z,96974.34
2019-03-28T02:58:20.284Z,96973.64
2019-03-28T02:59:23.726Z,96972.25
2019-03-28T03:00:27.158Z,96975.08
2019-03-28T03:01:30.591Z,96972.25
2019-03-28T03:02:34.015Z,96970.71
2019-03-28T03:03:37.455Z,96966.42
2019-03-28T03:04:40.906Z,96973.36
2019-03-28T03:05:44.335Z,96976.42
2019-03-28T03:06:47.847Z,96974.66
2019-03-28T03:07:51.283Z,96973.36
2019-03-28T03:08:54.855Z,96965.36
2019-03-28T03:09:58.325Z,96972.05
2019-03-28T03:11:01.762Z,96976.05
2019-03-28T03:12:05.269Z,96976.74
2019-03-28T03:13:09.996Z,96971.64
2019-03-28T03:14:13.482Z,96979.61
2019-03-28T03:15:17.075Z,96974.70
2019-03-28T03:16:20.580Z,96977.56
2019-03-28T03:17:24.014Z,96975.80
2019-03-28T03:18:27.452Z,96978.09
2019-03-28T03:19:30.878Z,96975.32
2019-03-28T03:20:34.323Z,96972.26
2019-03-28T03:21:37.784Z,96974.42
2019-03-28T03:22:41.218Z,96970.91
2019-03-28T03:23:44.654Z,96976.53
2019-03-28T03:24:48.225Z,96971.30
2019-03-28T03:25:51.742Z,96965.09
2019-03-28T03:26:55.308Z,96970.40
2019-03-28T03:27:59.395Z,96968.19
2019-03-28T03:29:02.945Z,96969.41
2019-03-28T03:30:09.921Z,96964.27
2019-03-28T03:31:13.522Z,96965.09
2019-03-28T03:32:17.010Z,96964.94
2019-03-28T03:33:20.602Z,96962.89
2019-03-28T03:34:24.014Z,96959.58
2019-03-28T03:35:28.415Z,96957.91
2019-03-28T03:36:32.002Z,96964.44
2019-03-28T03:37:35.441Z,96959.98
2019-03-28T03:38:38.864Z,96967.50
2019-03-28T03:39:42.375Z,96966.72
2019-03-28T03:40:45.878Z,96967.28
2019-03-28T03:41:49.427Z,96966.97
2019-03-28T03:42:52.838Z,96969.41
2019-03-28T03:43:56.353Z,96964.19
2019-03-28T03:44:59.860Z,96965.50
2019-03-28T03:46:03.321Z,96963.73
2019-03-28T03:47:06.798Z,96964.67
2019-03-28T03:48:10.240Z,96961.07
2019-03-28T03:49:13.670Z,96963.23
2019-03-28T03:50:20.155Z,96964.69
2019-03-28T03:51:23.681Z,96968.47
2019-03-28T03:52:27.132Z,96962.93
2019-03-28T03:53:30.549Z,96963.38
2019-03-28T03:54:33.980Z,96970.61
2019-03-28T03:55:37.479Z,96966.30
2019-03-28T03:56:40.923Z,96967.59
2019-03-28T03:57:44.390Z,96971.44
2019-03-28T03:58:47.815Z,96969.66
2019-03-28T03:59:51.253Z,96968.80
2019-03-28T04:00:54.686Z,96976.95
2019-03-28T04:01:58.134Z,96975.12
2019-03-28T04:03:03.206Z,96976.55
2019-03-28T04:04:06.874Z,96975.38
2019-03-28T04:05:10.434Z,96978.45
2019-03-28T04:06:13.874Z,96977.83
2019-03-28T04:07:17.327Z,96977.67
2019-03-28T04:08:20.760Z,96970.83
2019-03-28T04:09:24.187Z,96973.67
2019-03-28T04:10:27.685Z,96967.68
2019-03-28T04:11:31.136Z,96972.05
2019-03-28T04:12:34.570Z,96969.89
2019-03-28T04:13:38.008Z,96972.05
2019-03-28T04:14:41.433Z,96970.91
2019-03-28T04:15:45.007Z,96968.94
2019-03-28T04:16:48.524Z,96973.55
2019-03-28T04:17:51.960Z,96970.61
2019-03-28T04:18:55.392Z,96970.40
2019-03-28T04:19:58.978Z,96970.16
2019-03-28T04:21:05.666Z,96974.53
2019-03-28T04:22:09.989Z,96969.23
2019-03-28T04:23:13.626Z,96970.61
2019-03-28T04:24:17.064Z,96967.92
2019-03-28T04:25:20.500Z,96975.46
2019-03-28T04:26:25.576Z,96970.86
2019-03-28T04:27:29.016Z,96969.09
2019-03-28T04:28:32.857Z,96970.53
2019-03-28T04:29:36.284Z,96968.56
2019-03-28T04:30:39.711Z,96972.64
2019-03-28T04:31:43.193Z,96968.19
2019-03-28T04:32:46.855Z,96968.96
2019-03-28T04:33:50.428Z,96970.59
2019-03-28T04:34:53.858Z,96969.59
2019-03-28T04:35:57.300Z,96969.41
2019-03-28T04:37:00.743Z,96971.28
2019-03-28T04:38:04.243Z,96972.96
2019-03-28T04:39:07.692Z,96968.42
2019-03-28T04:40:11.456Z,96970.45
2019-03-28T04:41:14.882Z,96967.84
2019-03-28T04:42:18.326Z,96971.28
2019-03-28T04:43:21.760Z,96973.70
2019-03-28T04:44:25.197Z,96970.16
2019-03-28T04:45:28.635Z,96968.45
2019-03-28T04:46:32.131Z,96966.08
2019-03-28T04:47:36.275Z,96973.14
2019-03-28T04:48:39.767Z,96974.31
2019-03-28T04:49:43.225Z,96973.02
2019-03-28T04:50:46.642Z,96977.78
2019-03-28T04:51:50.082Z,96979.30
2019-03-28T04:52:53.602Z,96968.00
2019-03-28T04:53:56.987Z,96978.69
2019-03-28T04:55:00.467Z,96975.63
2019-03-28T04:56:03.983Z,96978.16
2019-03-28T04:57:07.427Z,96978.45
2019-03-28T04:58:10.856Z,96975.17
2019-03-28T04:59:14.839Z,96981.25
2019-03-28T05:00:19.059Z,96977.94
2019-03-28T05:01:22.568Z,96979.86
2019-03-28T05:02:26.029Z,96972.88
2019-03-28T05:03:29.467Z,96978.88
2019-03-28T05:04:32.988Z,96972.02
2019-03-28T05:05:36.554Z,96969.33
2019-03-28T05:06:39.987Z,96975.17
2019-03-28T05:07:43.435Z,96977.25
2019-03-28T05:08:46.876Z,96972.31
2019-03-28T05:09:50.379Z,96976.85
2019-03-28T05:10:53.907Z,96982.28
2019-03-28T05:11:57.405Z,96975.46
2019-03-28T05:13:00.866Z,96980.82
2019-03-28T05:14:04.356Z,96977.89
2019-03-28T05:15:09.723Z,96983.35
2019-03-28T05:16:13.153Z,96988.25
2019-03-28T05:17:16.576Z,96986.81
2019-03-28T05:18:20.039Z,96993.56
2019-03-28T05:19:23.609Z,96992.63
2019-03-28T05:20:27.046Z,96998.78
2019-03-28T05:21:31.426Z,96995.19
2019-03-28T05:22:35.253Z,97000.03
2019-03-28T05:23:38.684Z,96999.34
2019-03-28T05:24:42.113Z,96995.42
2019-03-28T05:25:45.554Z,96995.59
2019-03-28T05:26:48.981Z,96990.89
2019-03-28T05:27:52.430Z,96995.13
2019-03-28T05:28:57.879Z,96995.42
2019-03-28T05:30:01.058Z,96997.58
2019-03-28T05:31:04.631Z,96994.76
2019-03-28T05:32:08.069Z,96991.37
2019-03-28T05:33:11.525Z,96991.23
2019-03-28T05:34:14.955Z,96988.84
2019-03-28T05:35:18.454Z,96992.76
2019-03-28T05:36:21.885Z,96996.36
2019-03-28T05:37:25.313Z,96995.82
2019-03-28T05:38:28.764Z,96995.16
2019-03-28T05:39:32.199Z,96994.14
2019-03-28T05:40:36.492Z,96997.37
2019-03-28T05:41:40.095Z,97000.89
2019-03-28T05:42:43.593Z,96995.74
2019-03-28T05:43:47.079Z,97001.50
2019-03-28T05:44:50.493Z,97001.05
2019-03-28T05:45:53.923Z,96997.37
2019-03-28T05:46:57.362Z,97000.44
2019-03-28T05:48:00.906Z,97002.73
2019-03-28T05:49:04.350Z,97000.03
2019-03-28T05:50:08.119Z,97007.27
2019-03-28T05:51:11.613Z,97001.20
2019-03-28T05:52:15.136Z,97005.80
2019-03-28T05:53:18.595Z,97002.49
2019-03-28T05:54:22.033Z,97000.02
2019-03-28T05:55:25.465Z,97004.01
2019-03-28T05:56:28.900Z,97013.84
2019-03-28T05:57:32.330Z,97005.36
2019-03-28T05:58:35.797Z,97008.17
2019-03-28T05:59:39.226Z,97010.09
2019-03-28T06:00:42.666Z,97003.42
2019-03-28T06:01:46.171Z,97005.80
2019-03-28T06:02:50.476Z,97008.41
2019-03-28T06:03:53.939Z,97009.09
2019-03-28T06:04:57.371Z,97012.94
2019-03-28T06:06:01.025Z,97014.62
2019-03-28T06:07:04.427Z,97022.45
2019-03-28T06:08:07.851Z,97016.45
2019-03-28T06:09:11.364Z,97012.48
2019-03-28T06:10:16.360Z,97016.61
2019-03-28T06:11:20.284Z,97015.36
2019-03-28T06:12:23.734Z,97016.19
2019-03-28T06:13:27.180Z,97012.88
2019-03-28T06:14:30.613Z,97014.88
2019-03-28T06:15:34.083Z,97015.70
2019-03-28T06:16:37.509Z,97018.97
2019-03-28T06:17:40.945Z,97013.28
2019-03-28T06:18:44.404Z,97008.14
2019-03-28T06:19:47.906Z,97013.98
2019-03-28T06:20:51.353Z,97012.03
2019-03-28T06:21:54.778Z,97007.61
2019-03-28T06:22:58.207Z,97014.67
2019-03-28T06:24:01.654Z,97010.14
2019-03-28T06:25:06.124Z,97013.34
2019-03-28T06:26:09.733Z,97014.80
2019-03-28T06:27:13.167Z,97013.28
2019-03-28T06:28:16.595Z,97017.02
2019-03-28T06:29:24.082Z,97017.87
2019-03-28T06:30:25.283Z,97012.27
2019-03-28T06:31:28.716Z,97011.78
2019-03-28T06:32:42.226Z,97015.83
2019-03-28T06:33:38.529Z,97021.59
2019-03-28T06:34:42.015Z,97017.02
2019-03-28T06:35:45.447Z,97020.61
2019-03-28T06:36:48.952Z,97014.28
2019-03-28T06:37:52.384Z,97025.43
2019-03-28T06:38:55.838Z,97019.43
2019-03-28T06:39:59.347Z,97016.05
2019-03-28T06:41:02.779Z,97023.14
2019-03-28T06:42:06.273Z,97020.98
2019-03-28T06:43:11.489Z,97017.83
2019-03-28T06:44:14.867Z,96985.41
2019-03-28T06:45:18.367Z,97024.09
2019-03-28T06:46:21.820Z,97020.63
2019-03-28T06:47:25.254Z,97018.98
2019-03-28T06:48:28.692Z,97018.98
2019-03-28T06:49:32.151Z,97016.86
2019-03-28T06:50:35.580Z,97016.98
2019-03-28T06:51:39.009Z,97016.36
2019-03-28T06:52:42.446Z,97013.19
2019-03-28T06:53:45.949Z,97019.19
2019-03-28T06:54:49.403Z,97016.48
2019-03-28T06:55:52.849Z,97018.25
2019-03-28T06:56:56.278Z,97020.63
2019-03-28T06:57:59.697Z,97017.02
2019-03-28T06:59:03.148Z,97019.31
2019-03-28T07:00:08.967Z,97018.94
2019-03-28T07:01:12.530Z,97014.28
2019-03-28T07:02:15.915Z,97015.67
2019-03-28T07:03:19.415Z,97017.88
2019-03-28T07:04:22.873Z,97015.00
2019-03-28T07:05:26.370Z,97021.99
2019-03-28T07:06:29.804Z,97018.52
2019-03-28T07:07:33.246Z,97018.84
2019-03-28T07:08:36.674Z,97019.50
2019-03-28T07:09:40.130Z,97016.50
2019-03-28T07:10:43.615Z,97017.80
2019-03-28T07:11:47.140Z,97020.63
2019-03-28T07:12:50.571Z,97020.63
2019-03-28T07:13:54.002Z,97020.63
2019-03-28T07:14:59.624Z,97020.30
2019-03-28T07:16:02.607Z,97021.11
2019-03-28T07:17:06.107Z,97022.42
2019-03-28T07:18:09.543Z,97022.33
2019-03-28T07:19:13.036Z,97025.09
2019-03-28T07:20:16.670Z,97015.34
2019-03-28T07:21:20.154Z,97026.26
2019-03-28T07:22:23.584Z,97026.17
2019-03-28T07:23:27.015Z,97026.94
2019-03-28T07:24:30.457Z,97023.14
2019-03-28T07:25:33.909Z,97028.19
2019-03-28T07:26:37.430Z,97021.56
2019-03-28T07:27:40.865Z,97022.21
2019-03-28T07:28:44.301Z,97022.66
2019-03-28T07:29:51.108Z,97023.43
2019-03-28T07:30:52.966Z,97017.34
2019-03-28T07:31:56.397Z,97018.64
2019-03-28T07:32:59.860Z,97020.84
2019-03-28T07:34:03.324Z,97018.91
2019-03-28T07:35:07.311Z,97017.17
2019-03-28T07:36:10.847Z,97013.78
2019-03-28T07:37:14.344Z,97019.59
2019-03-28T07:38:17.850Z,97018.28
2019-03-28T07:39:21.283Z,97015.00
2019-03-28T07:40:25.607Z,97017.41
2019-03-28T07:41:29.203Z,97016.73
2019-03-28T07:42:32.640Z,97009.12
2019-03-28T07:43:36.066Z,97009.67
2019-03-28T07:44:39.499Z,97004.94
2019-03-28T07:45:43.000Z,97000.70
2019-03-28T07:46:47.759Z,96997.97
2019-03-28T07:47:51.504Z,96997.97
2019-03-28T07:48:55.167Z,97005.48
2019-03-28T07:49:58.649Z,97001.21
2019-03-28T07:51:02.081Z,96998.59
2019-03-28T07:52:05.582Z,97005.91
2019-03-28T07:53:09.157Z,97003.41
2019-03-28T07:54:13.338Z,97002.78
2019-03-28T07:55:17.225Z,97001.23
2019-03-28T07:56:20.973Z,97003.41
2019-03-28T07:57:24.447Z,96999.39
2019-03-28T07:58:28.002Z,96998.75
2019-03-28T07:59:31.505Z,97000.62
2019-03-28T08:00:35.002Z,96998.14
2019-03-28T08:01:38.466Z,96998.58
2019-03-28T08:02:41.963Z,97002.08
2019-03-28T08:03:45.383Z,97004.70
2019-03-28T08:04:48.886Z,97010.36
2019-03-28T08:05:52.385Z,97007.16
2019-03-28T08:06:55.936Z,97011.77
2019-03-28T08:07:59.451Z,97012.12
2019-03-28T08:09:03.730Z,97007.63
2019-03-28T08:10:08.896Z,97005.34
2019-03-28T08:11:12.405Z,97010.19
2019-03-28T08:12:22.623Z,97008.35
2019-03-28T08:13:21.133Z,97009.58
2019-03-28T08:14:24.700Z,97006.29
2019-03-28T08:15:28.210Z,97006.29
2019-03-28T08:16:31.809Z,97004.33
2019-03-28T08:17:35.330Z,97007.33
2019-03-28T08:18:38.781Z,97007.33
2019-03-28T08:19:42.537Z,97014.52
2019-03-28T08:20:46.076Z,97016.17
2019-03-28T08:21:49.673Z,97014.86
2019-03-28T08:22:53.133Z,97015.06
2019-03-28T08:23:56.588Z,97025.67
2019-03-28T08:25:00.183Z,97027.42
2019-03-28T08:26:03.875Z,97018.55
2019-03-28T08:27:07.387Z,97025.78
2019-03-28T08:28:10.931Z,97027.09
2019-03-28T08:29:14.313Z,97023.20
2019-03-28T08:30:20.810Z,97028.45
2019-03-28T08:31:24.383Z,97020.69
2019-03-28T08:32:28.358Z,97020.59
2019-03-28T08:33:32.664Z,97020.59
2019-03-28T08:34:36.351Z,97022.56
2019-03-28T08:35:40.024Z,97022.56
2019-03-28T08:36:44.822Z,97024.31
2019-03-28T08:37:48.503Z,97014.57
2019-03-28T08:38:52.751Z,97017.19
2019-03-28T08:39:56.326Z,97022.77
2019-03-28T08:40:59.770Z,97021.90
2019-03-28T08:42:03.195Z,97021.90
2019-03-28T08:43:06.876Z,97031.10
2019-03-28T08:44:10.778Z,97023.67
2019-03-28T08:45:14.684Z,97028.25
2019-03-28T08:46:18.126Z,97021.38
2019-03-28T08:47:21.559Z,97018.86
2019-03-28T08:48:25.259Z,97019.06
2019-03-28T08:49:28.705Z,97021.15
2019-03-28T08:50:32.138Z,97011.87
2019-03-28T08:51:35.638Z,97014.49
2019-03-28T08:52:39.155Z,97023.67
2019-03-28T08:53:42.719Z,97023.45
2019-03-28T08:54:46.167Z,97025.84
2019-03-28T08:55:50.244Z,97024.53
2019-03-28T08:56:53.805Z,97016.90
2019-03-28T08:57:57.249Z,97015.04
2019-03-28T08:59:00.761Z,97014.16
2019-03-28T09:00:07.201Z,97017.12
2019-03-28T09:01:10.840Z,97014.91
2019-03-28T09:02:14.288Z,97021.27
2019-03-28T09:03:17.874Z,97018.98
2019-03-28T09:04:21.360Z,97018.22
2019-03-28T09:05:25.050Z,97015.14
2019-03-28T09:06:28.645Z,97012.95
2019-03-28T09:07:32.067Z,97007.94
2019-03-28T09:08:35.678Z,97015.89
2019-03-28T09:09:39.325Z,97015.89
2019-03-28T09:10:42.969Z,97014.27
2019-03-28T09:11:46.473Z,97007.03
2019-03-28T09:12:49.914Z,97008.34
2019-03-28T09:13:53.414Z,97005.73
2019-03-28T09:14:56.897Z,97004.85
2019-03-28T09:16:00.503Z,97005.92
2019-03-28T09:17:04.036Z,97007.89
2019-03-28T09:18:07.489Z,97006.02
2019-03-28T09:19:11.004Z,97007.00
2019-03-28T09:20:14.671Z,96999.34
2019-03-28T09:21:18.240Z,96999.34
2019-03-28T09:22:21.746Z,97009.83
2019-03-28T09:23:25.177Z,97003.48
2019-03-28T09:24:28.691Z,97002.17
2019-03-28T09:25:32.130Z,97008.53
2019-03-28T09:26:35.697Z,97016.05
2019-03-28T09:27:39.265Z,97009.40
2019-03-28T09:28:42.932Z,97008.31
2019-03-28T09:29:46.569Z,97006.32
2019-03-28T09:30:50.073Z,97006.87
2019-03-28T09:31:53.577Z,97008.05
2019-03-28T09:32:57.223Z,96999.68
2019-03-28T09:34:00.829Z,97011.91
2019-03-28T09:35:06.213Z,97008.62
2019-03-28T09:36:09.782Z,97009.62
2019-03-28T09:37:13.371Z,97007.08
2019-03-28T09:38:17.062Z,97005.11
2019-03-28T09:39:20.548Z,97005.11
2019-03-28T09:40:24.099Z,97012.64
2019-03-28T09:41:27.483Z,97005.77
2019-03-28T09:42:31.118Z,97007.24
2019-03-28T09:43:34.544Z,97012.73
2019-03-28T09:44:38.135Z,97003.30
2019-03-28T09:45:41.759Z,97008.52
2019-03-28T09:46:45.298Z,97008.09
2019-03-28T09:47:48.862Z,97005.26
2019-03-28T09:48:52.299Z,97011.98
2019-03-28T09:49:55.893Z,97012.84
2019-03-28T09:51:00.334Z,97010.78
2019-03-28T09:52:03.951Z,97009.97
2019-03-28T09:53:07.389Z,97006.45
2019-03-28T09:54:10.830Z,97006.34
2019-03-28T09:55:14.362Z,97001.92
2019-03-28T09:57:34.187Z,96998.28
2019-03-28T09:58:37.628Z,96995.39
2019-03-28T09:59:41.058Z,96992.27
2019-03-28T10:00:44.569Z,96997.48
2019-03-28T10:01:48.007Z,96998.09
2019-03-28T10:02:51.509Z,96999.31
2019-03-28T10:03:54.963Z,96998.59
2019-03-28T10:04:58.422Z,96992.27
2019-03-28T10:14:41.624Z,96985.09
2019-03-28T10:44:04.476Z,96956.02
2019-03-28T11:03:54.447Z,96947.45
2019-03-28T11:04:57.883Z,96951.36
2019-03-28T11:14:13.778Z,96945.69
2019-03-28T11:15:17.350Z,96941.95
2019-03-28T11:16:20.801Z,96951.59
2019-03-28T11:17:24.319Z,96948.95
2019-03-28T11:24:38.827Z,96944.16
2019-03-28T11:25:42.234Z,96944.50
2019-03-28T11:26:45.708Z,96939.05
2019-03-28T11:27:49.654Z,96944.48
2019-03-28T11:33:32.940Z,96867.44
2019-03-28T11:34:36.367Z,96939.89
2019-03-28T11:35:39.814Z,96944.39
2019-03-28T11:36:43.271Z,96947.66
2019-03-28T11:37:46.705Z,96939.89
2019-03-28T11:43:57.274Z,96952.52
2019-03-28T11:53:26.748Z,96944.39
2019-03-28T11:54:30.152Z,96952.83
2019-03-28T11:55:33.649Z,96952.58
2019-03-28T12:05:25.520Z,96939.59
2019-03-28T12:06:28.972Z,96933.94
2019-03-28T12:07:32.427Z,96943.75
2019-03-28T12:08:35.867Z,96937.70
2019-03-28T12:09:39.383Z,96934.71
2019-03-28T12:10:42.821Z,96934.61
2019-03-28T12:11:46.266Z,96934.70
2019-03-28T12:12:49.736Z,96927.56
2019-03-28T12:13:53.172Z,96937.30
2019-03-28T12:14:56.605Z,96927.02
2019-03-28T12:24:08.373Z,96925.94
2019-03-28T12:25:11.966Z,96925.16
2019-03-28T12:26:15.412Z,96925.41
2019-03-28T12:27:18.849Z,96926.08
2019-03-28T12:28:22.385Z,96914.11
2019-03-28T12:29:25.896Z,96914.62
2019-03-28T12:30:29.315Z,96921.80
2019-03-28T12:31:33.398Z,96918.42
2019-03-28T12:32:37.000Z,96918.94
2019-03-28T12:33:40.442Z,96923.89
2019-03-28T12:34:43.877Z,96923.09
2019-03-28T12:35:47.323Z,96927.61
2019-03-28T12:36:50.776Z,96924.92
2019-03-28T12:37:54.224Z,96921.67
2019-03-28T12:38:57.754Z,96921.47
2019-03-28T12:40:01.216Z,96916.23
2019-03-28T12:41:04.721Z,96908.83
2019-03-28T12:42:08.164Z,96904.09
2019-03-28T12:43:11.618Z,96913.00
2019-03-28T12:44:15.048Z,96917.51
2019-03-28T12:45:18.626Z,96913.09
2019-03-28T12:46:22.146Z,96915.33
2019-03-28T12:47:25.589Z,96913.16
2019-03-28T12:48:29.081Z,96909.44
2019-03-28T12:49:32.467Z,96911.16
2019-03-28T12:50:35.903Z,96911.25
2019-03-28T12:51:39.340Z,96912.16
2019-03-28T12:52:42.768Z,96912.91
2019-03-28T12:53:46.233Z,96909.45
2019-03-28T12:54:49.681Z,96914.87
2019-03-28T12:55:53.119Z,96916.67
2019-03-28T12:56:58.175Z,96913.09
2019-03-28T12:58:01.839Z,96911.91
2019-03-28T12:59:05.321Z,96909.88
2019-03-28T13:00:10.796Z,96906.77
2019-03-28T13:01:14.246Z,96903.38
2019-03-28T13:02:28.658Z,96904.52
2019-03-28T13:03:22.839Z,96901.09
2019-03-28T13:04:26.307Z,96907.76
2019-03-28T13:05:29.766Z,96904.27
2019-03-28T13:06:33.596Z,96903.48
2019-03-28T13:07:37.190Z,96906.36
2019-03-28T13:08:40.645Z,96900.81
2019-03-28T13:09:44.087Z,96903.32
2019-03-28T13:10:47.520Z,96900.16
2019-03-28T13:11:50.955Z,96898.22
2019-03-28T13:12:54.392Z,96894.99
2019-03-28T13:13:57.850Z,96892.38
2019-03-28T13:15:01.288Z,96896.44
2019-03-28T13:16:05.479Z,96899.06
2019-03-28T13:17:09.151Z,96900.31
2019-03-28T13:18:12.600Z,96893.88
2019-03-28T13:19:16.068Z,96904.02
2019-03-28T13:20:22.149Z,96895.50
2019-03-28T13:21:24.757Z,96892.14
2019-03-28T13:22:28.630Z,96893.20
2019-03-28T13:23:32.211Z,96890.44
2019-03-28T13:24:35.678Z,96894.17
2019-03-28T13:25:39.138Z,96899.54
2019-03-28T13:26:42.562Z,96901.80
2019-03-28T13:27:46.019Z,96899.80
2019-03-28T13:28:49.460Z,96890.48
2019-03-28T13:29:55.090Z,96896.53
2019-03-28T13:30:58.063Z,96896.91
2019-03-28T13:32:01.501Z,96893.33
2019-03-28T13:33:05.010Z,96895.77
2019-03-28T13:34:08.470Z,96901.29
2019-03-28T13:35:12.107Z,96892.16
2019-03-28T13:36:15.626Z,96897.82
2019-03-28T13:37:19.088Z,96901.59
2019-03-28T13:38:22.529Z,96897.03
2019-03-28T13:39:25.989Z,96893.11
2019-03-28T13:40:29.420Z,96897.39
2019-03-28T13:41:32.857Z,96894.66
2019-03-28T13:42:37.027Z,96895.70
2019-03-28T13:43:40.464Z,96883.78
2019-03-28T13:44:43.928Z,96894.10
2019-03-28T13:45:47.356Z,96892.17
2019-03-28T13:46:50.793Z,96892.78
2019-03-28T13:47:54.541Z,96897.69
2019-03-28T13:48:57.919Z,96896.16
2019-03-28T13:50:01.374Z,96889.84
2019-03-28T13:51:04.813Z,96890.73
2019-03-28T13:52:08.326Z,96894.36
2019-03-28T13:53:11.761Z,96888.70
2019-03-28T13:54:15.351Z,96889.88
2019-03-28T13:55:18.963Z,96886.84
2019-03-28T13:56:22.385Z,96887.08
2019-03-28T13:57:25.820Z,96885.90
2019-03-28T13:58:29.247Z,96882.47
2019-03-28T13:59:35.327Z,96886.77
2019-03-28T14:00:37.863Z,96883.33
2019-03-28T14:01:41.300Z,96884.77
2019-03-28T14:02:55.664Z,96886.83
2019-03-28T14:03:49.982Z,96886.88
2019-03-28T14:04:53.909Z,96885.51
2019-03-28T14:05:57.487Z,96888.84
2019-03-28T14:07:00.996Z,96893.80
2019-03-28T14:08:04.506Z,96893.91
2019-03-28T14:09:08.017Z,96893.38
2019-03-28T14:10:11.669Z,96893.53
2019-03-28T14:11:15.117Z,96895.44
2019-03-28T14:12:18.646Z,96890.00
2019-03-28T14:13:22.076Z,96890.56